logo dgac
Viernes 12 de Abril del 2024
Buscar por aerodromo o helipuerto
Ingrese nombre de aeródromo, localidad o designador OACI:
TAF: TAF SCGZ 121002Z 1212/1300 26015KT 9999 FEW016 SCT036 TN03/1300Z TX10/1218Z BECMG 1214/1216 30009KT FEW050 TEMPO 1221/1300 5000 BR SCT008 BKN015
TAF del 12/04/2024 a las 10:02 UTC
Para mayor información visite www.meteochile.gob.cl
Período de validez: desde el 12 a las 12:00 UTC hasta el 13 a las 00:00 UTC
Viento: dirección 260 grados, velocidad 15 nudos
Visibilidad: 10 km o más
Nubes: Escasa nubosidad a 1600 pies sobre el nivel del aeródromo
Nubes: Nubosidad parcial a 3600 pies sobre el nivel del aeródromo
Temperatura mínima: 3ºC el 13 a las 00:00 UTC
Temperatura máxima: 10ºC el 12 a las 18:00 UTC
Se espera un cambio entre las 14:00 UTC del 12 y las 16:00 UTC del 12, :
Viento: dirección 300 grados, velocidad 9 nudos
Nubes: Escasa nubosidad a 5000 pies sobre el nivel del aeródromo
Se espera en forma temporal entre las 21:00 UTC del 12 y las 00:00 UTC del 13:
Visibilidad: 5000 metros
Neblina
Nubes: Nubosidad parcial a 800 pies sobre el nivel del aeródromo
Nubes: Nublado a 1500 pies sobre el nivel del aeródromo